Date,TemperatureHighF,TemperatureAvgF,TemperatureLowF,DewpointHighF,DewpointAvgF,DewpointLowF,HumidityHigh,HumidityAvg,HumidityLow,PressureMaxIn,PressureMinIn,WindSpeedMaxMPH,WindSpeedAvgMPH,GustSpeedMaxMPH,PrecipitationSumIn
2013-1-1,34,20,11,14,9,5,83,64,34,30.50,30.33,4,0,6,0.01
2013-1-2,33,21,11,12,8,2,69,56,35,30.60,30.39,10,0,13,0.00
2013-1-3,40,23,13,8,4,-1,68,45,22,30.65,30.39,9,0,10,0.00
2013-1-4,49,27,13,14,7,1,65,45,21,30.52,30.19,6,0,7,0.00
2013-1-5,42,26,15,18,12,6,69,56,35,30.60,30.20,7,0,9,0.00
2013-1-6,49,28,12,16,10,3,76,50,18,30.54,30.02,6,0,6,0.00
2013-1-7,55,36,25,16,13,10,61,42,19,30.27,29.91,7,0,8,0.00
2013-1-8,53,39,24,22,17,9,60,42,27,30.30,29.85,8,0,11,0.00
2013-1-9,64,38,22,24,19,13,73,48,19,30.52,30.00,10,0,12,0.00
2013-1-10,46,35,24,23,18,12,69,51,30,30.02,29.49,10,0,14,0.00
2013-1-11,44,29,14,26,17,9,82,64,35,30.03,29.31,15,1,15,0.01
2013-1-12,17,9,3,10,2,-3,82,74,57,30.48,30.01,6,0,9,0.00
2013-1-13,16,8,2,5,0,-4,79,70,57,30.59,30.43,6,0,7,0.00
2013-1-14,16,8,2,6,1,-4,89,73,60,30.62,30.47,5,0,6,0.00
2013-1-15,32,19,-1,14,4,-6,85,55,37,30.60,30.32,5,0,7,0.00
2013-1-16,54,36,24,24,18,12,63,48,30,30.54,30.23,5,0,11,0.00
2013-1-17,54,34,20,23,18,13,75,55,27,30.67,30.35,4,0,6,0.00
2013-1-18,59,39,22,17,12,7,66,37,15,30.42,30.10,7,0,11,0.00
2013-1-19,63,40,26,14,10,4,47,30,13,30.38,30.11,6,0,9,0.00
2013-1-20,49,33,22,17,14,10,70,47,24,30.47,30.19,6,0,11,0.00
2013-1-21,58,36,17,20,12,3,79,44,17,30.48,30.12,6,0,10,0.00
2013-1-22,64,44,26,12,4,-1,38,21,9,30.30,29.99,13,0,15,0.00
2013-1-23,57,40,30,16,9,1,41,29,16,30.34,30.15,5,0,6,0.00
2013-1-24,68,47,27,29,20,11,55,37,17,30.23,29.88,13,1,19,0.00
2013-1-25,60,43,32,31,26,20,66,51,31,30.21,30.00,6,0,9,0.00
2013-1-26,54,40,28,35,27,20,82,62,38,30.16,29.76,4,0,5,0.02
2013-1-27,60,42,30,38,32,24,89,69,38,29.88,29.66,5,0,6,0.00
2013-1-28,59,39,28,30,26,21,92,62,25,29.85,29.47,15,1,20,0.00
2013-1-29,32,26,20,24,16,9,92,68,42,30.19,29.75,10,1,14,0.09
2013-1-30,42,28,14,18,13,6,79,54,37,30.20,29.98,12,1,15,0.03
2013-1-31,48,37,26,22,19,14,68,48,31,30.28,29.96,13,1,20,0.04
2013-2-1,50,35,23,24,19,15,74,53,30,30.34,30.11,20,1,20,0.00
2013-2-2,60,38,23,21,17,13,76,47,17,30.50,30.24,9,0,15,0.00
2013-2-3,52,37,23,22,16,9,70,45,20,30.33,29.96,6,0,9,0.00
2013-2-4,56,38,24,16,13,10,58,38,18,30.12,29.92,11,0,13,0.00
2013-2-5,63,42,27,23,18,14,61,40,21,30.18,29.83,5,0,7,0.00
2013-2-6,56,41,28,32,24,17,88,53,28,30.11,29.80,9,0,12,0.05
2013-2-7,40,32,27,32,26,20,88,79,57,30.33,30.10,5,0,7,0.01
2013-2-8,52,36,27,23,19,15,71,52,30,30.14,29.77,10,0,10,0.00
2013-2-9,36,30,23,28,21,14,82,70,55,29.91,29.69,10,1,13,0.00
2013-2-10,37,28,22,20,15,9,82,60,34,30.25,29.73,11,1,18,0.00
2013-2-11,33,23,14,16,13,8,79,64,47,30.36,30.18,6,0,9,0.00
2013-2-12,44,28,17,13,6,-2,76,44,17,30.33,30.16,8,0,9,0.00
2013-2-13,50,34,22,17,12,6,52,40,26,30.21,30.04,13,1,16,0.00
2013-2-14,36,28,23,23,18,13,81,66,46,30.51,30.09,16,1,20,0.00
2013-2-15,41,27,16,21,15,9,79,62,33,30.59,30.39,13,1,17,0.02
2013-2-16,59,40,23,20,15,12,69,39,21,30.41,30.00,14,1,14,0.00
2013-2-17,64,40,27,19,11,2,61,35,9,30.02,29.52,12,1,18,0.00
2013-2-18,44,32,22,20,12,4,72,46,21,30.28,29.77,20,1,20,0.00
2013-2-19,43,30,18,16,11,4,62,46,32,30.30,29.92,9,1,10,0.00
2013-2-20,36,27,20,27,18,13,87,70,48,29.96,29.78,10,1,11,0.00
2013-2-21,20,17,15,16,13,11,86,85,85,30.09,29.90,4,0,5,0.00
2013-2-22,36,28,16,20,18,12,82,65,49,30.22,30.06,6,1,9,0.06
2013-2-23,48,32,18,27,18,7,84,58,33,30.06,29.69,10,1,12,0.04
2013-2-24,29,26,19,26,24,16,92,90,85,30.37,29.78,19,3,21,0.00
2013-2-25,40,24,8,23,14,5,90,69,33,30.41,30.06,5,0,7,0.25
2013-2-26,35,26,17,27,19,8,81,74,65,30.34,29.98,15,2,21,0.04
2013-2-27,37,27,17,18,13,8,75,57,35,30.51,30.31,13,1,13,0.01
2013-2-28,45,30,14,18,12,5,71,48,28,30.53,30.30,14,1,17,0.00
2013-3-1,49,36,24,23,20,14,70,52,34,30.49,30.32,5,0,9,0.00
2013-3-2,62,44,28,29,25,20,71,50,26,30.47,30.02,9,0,10,0.00
2013-3-3,65,50,38,30,26,21,64,40,23,30.02,29.59,11,0,11,0.00
2013-3-4,45,30,18,27,21,10,86,70,45,30.48,29.60,14,1,16,0.04
2013-3-5,44,26,11,24,15,5,76,64,44,30.60,30.33,9,0,10,0.04
2013-3-6,62,37,19,34,23,14,92,62,21,30.34,29.90,7,0,11,0.01
2013-3-7,67,46,29,32,26,22,76,50,20,30.07,29.81,13,1,14,0.00
2013-3-8,48,39,30,33,29,24,81,68,51,30.02,29.73,9,0,9,0.00
2013-3-9,36,31,26,30,27,18,91,84,68,30.29,29.69,15,3,18,0.06
2013-3-10,41,30,16,27,19,12,84,64,43,30.41,30.18,9,0,10,0.24
2013-3-11,53,39,30,30,24,19,87,59,32,30.26,29.94,19,1,22,0.00
2013-3-12,42,32,26,32,27,22,89,80,64,30.51,30.21,6,0,6,0.22
2013-3-13,68,47,30,38,28,23,86,53,23,30.43,30.15,8,1,12,0.00
2013-3-14,73,52,36,32,27,21,65,41,18,30.33,30.05,7,0,7,0.00
2013-3-15,77,60,45,31,27,24,49,30,16,30.05,29.70,12,1,17,0.00
2013-3-16,56,48,42,35,32,25,69,54,32,29.95,29.71,9,0,10,0.00
2013-3-17,62,46,34,33,26,13,77,48,19,29.83,29.47,15,2,23,0.00
2013-3-18,55,41,30,20,14,8,44,33,21,30.03,29.82,13,2,18,0.00
2013-3-19,57,42,30,20,12,0,56,31,12,30.49,29.93,15,1,16,0.00
2013-3-20,53,38,22,26,20,14,74,51,32,30.48,29.77,9,1,11,0.00
2013-3-21,60,43,33,35,23,12,65,47,26,29.83,29.46,13,2,20,0.00
2013-3-22,49,36,27,28,22,13,88,59,35,30.02,29.67,20,2,23,0.00
2013-3-23,28,20,15,25,17,10,92,85,81,30.54,29.98,12,2,16,0.00
2013-3-24,28,18,5,19,10,0,92,72,56,30.55,30.39,10,0,10,0.13
2013-3-25,38,24,14,17,12,7,82,61,35,30.59,30.43,7,0,7,0.10
2013-3-26,55,34,18,33,20,10,79,60,30,30.44,30.01,7,1,10,0.01
2013-3-27,31,31,31,24,24,24,75,75,75,30.13,30.10,0,0,0,0.00
2013-3-28,53,50,48,34,33,31,54,52,46,30.12,30.05,4,0,6,0.00
2013-3-29,67,52,39,34,31,29,72,47,26,30.14,29.96,6,0,13,0.00
2013-3-30,70,51,37,38,31,25,76,51,20,30.23,29.89,16,1,21,0.00
2013-3-31,71,52,33,37,28,21,85,47,16,30.18,29.85,10,1,12,0.00
2013-4-1,58,44,34,37,30,26,77,59,42,30.17,29.96,11,2,16,0.01
2013-4-2,42,39,37,35,34,31,90,82,70,30.22,30.04,5,0,7,0.15
2013-4-3,62,46,37,40,33,27,92,65,28,30.24,30.00,8,0,10,0.04
2013-4-4,71,53,35,35,30,27,75,44,23,30.22,29.88,6,0,11,0.00
2013-4-5,74,60,48,36,30,26,50,34,19,29.88,29.53,10,1,18,0.00
2013-4-6,70,55,43,35,28,22,52,35,21,29.89,29.69,11,1,12,0.00
2013-4-7,68,54,42,35,31,26,75,43,23,29.81,29.58,13,1,15,0.00
2013-4-8,68,47,27,37,30,22,84,54,23,29.86,29.27,20,3,26,0.00
2013-4-9,27,18,12,22,13,7,86,80,70,30.57,29.83,15,4,17,0.00
2013-4-10,31,20,8,19,11,3,81,70,56,30.56,30.09,8,1,13,0.07
2013-4-11,57,39,22,35,26,14,80,63,35,30.09,29.81,15,1,15,0.01
2013-4-12,63,43,31,35,31,23,82,65,26,30.05,29.80,17,1,20,0.00
2013-4-13,70,51,30,36,28,22,87,49,18,29.97,29.29,15,1,16,0.00
2013-4-14,52,43,34,38,24,15,89,52,24,29.80,29.37,15,2,20,0.28
2013-4-15,40,31,24,26,22,15,88,72,37,30.23,29.71,11,1,15,0.00
2013-4-16,35,29,24,30,26,21,89,85,79,30.24,29.98,11,1,13,0.20
2013-4-17,32,27,21,29,24,18,92,88,84,30.41,30.07,13,3,17,0.04
2013-4-18,38,30,16,22,16,12,92,55,44,30.43,30.30,7,1,10,0.19
2013-4-19,57,41,25,29,20,14,66,45,28,30.33,29.96,11,0,12,0.00
2013-4-20,60,47,33,36,30,24,76,53,32,30.00,29.84,7,0,10,0.00
2013-4-21,66,51,36,34,29,23,80,48,23,30.12,29.89,7,1,12,0.00
2013-4-22,54,35,24,37,28,20,87,75,50,30.50,29.84,13,2,20,0.02
2013-4-23,37,27,22,23,20,18,95,74,54,30.52,30.33,4,0,7,0.26
2013-4-24,58,40,26,28,20,16,76,49,23,30.40,30.17,10,1,12,0.09
2013-4-25,67,50,33,31,24,18,64,40,20,30.24,29.85,8,0,9,0.00
2013-4-26,70,54,36,32,26,21,68,36,19,30.15,29.92,10,1,12,0.00
2013-4-27,76,59,43,37,27,21,54,32,16,30.15,29.88,7,0,10,0.00
2013-4-28,82,64,46,38,30,23,48,30,16,29.91,29.63,11,1,15,0.00
2013-4-29,83,67,50,40,33,27,56,31,16,29.72,29.38,12,1,14,0.00
2013-4-30,63,52,40,41,34,27,83,52,27,30.03,29.38,14,2,19,0.00
2013-5-1,40,31,25,36,28,22,91,89,83,30.86,30.00,13,2,14,0.24
2013-5-2,47,35,23,28,23,19,89,64,38,30.94,30.56,7,0,9,0.24
2013-5-3,62,47,28,30,25,21,78,46,26,30.57,30.06,11,1,12,0.00
2013-5-4,62,49,36,37,30,24,73,48,32,30.20,30.06,7,1,11,0.00
2013-5-5,59,49,37,34,28,24,66,47,32,30.23,30.06,8,0,11,0.00
2013-5-6,67,54,40,40,34,26,63,48,34,30.08,29.81,7,0,9,0.00
2013-5-7,73,57,47,46,40,36,84,55,28,29.92,29.73,11,1,13,0.18
2013-5-8,62,49,44,51,43,39,90,80,51,30.06,29.82,10,1,16,0.55
2013-5-9,58,49,44,50,43,38,92,81,62,30.20,30.00,13,1,14,0.24
2013-5-10,68,54,40,45,39,35,83,59,35,30.25,30.12,12,1,16,0.00
2013-5-11,71,57,44,46,40,35,79,53,30,30.37,30.11,11,1,14,0.00
2013-5-12,81,65,49,48,39,36,66,41,23,30.15,29.90,11,1,12,0.00
2013-5-13,86,70,51,49,41,36,59,37,22,30.00,29.76,9,0,14,0.00
2013-5-14,88,70,60,50,42,38,45,37,20,29.81,29.65,8,0,10,0.00
2013-5-15,83,66,58,54,45,40,82,50,26,29.83,29.61,12,1,14,0.20
2013-5-16,84,68,51,50,45,38,80,48,21,29.81,29.54,12,1,17,0.00
2013-5-17,89,72,55,46,38,28,60,33,14,29.71,29.46,9,0,15,0.00
2013-5-18,79,64,54,46,36,28,53,36,22,29.71,29.52,10,0,12,0.00
2013-5-19,73,60,52,41,36,28,61,43,22,29.72,29.56,10,1,12,0.00
2013-5-20,66,54,49,50,42,37,87,67,40,29.96,29.67,10,0,16,0.19
2013-5-21,72,58,43,43,38,32,86,52,28,30.03,29.74,8,1,11,0.00
2013-5-22,78,61,45,53,41,34,78,51,26,29.92,29.68,13,0,20,0.06
2013-5-23,73,60,47,52,47,42,86,64,46,30.01,29.79,11,1,15,0.00
2013-5-24,87,69,49,56,45,31,87,49,15,29.88,29.63,13,1,16,0.00
2013-5-25,87,71,55,55,42,26,79,42,12,29.80,29.57,9,0,13,0.00
2013-5-26,85,70,57,47,39,30,56,35,16,29.74,29.58,9,0,14,0.00
2013-5-27,83,70,56,45,37,29,55,32,16,29.67,29.49,8,0,13,0.00
2013-5-28,82,66,49,52,42,34,69,43,21,29.67,29.32,11,1,15,0.00
2013-5-29,65,57,52,54,45,33,89,65,39,29.64,29.34,10,0,14,0.25
2013-5-30,72,61,49,41,34,29,60,37,22,29.74,29.55,18,2,21,0.00
2013-5-31,74,62,48,33,27,22,53,28,16,29.86,29.69,14,1,17,0.00
2013-6-1,70,58,45,45,38,24,71,48,27,30.10,29.85,9,1,13,0.00
2013-6-2,82,65,46,49,39,33,72,42,20,30.09,29.60,5,0,7,0.00
2013-6-3,91,74,55,44,38,32,49,29,15,29.64,29.43,11,1,18,0.00
2013-6-4,76,63,51,55,47,30,87,57,26,30.10,29.62,10,1,16,0.29
2013-6-5,57,52,48,50,46,44,90,82,70,30.17,30.02,6,0,7,0.01
2013-6-6,77,68,46,54,44,40,90,45,27,30.06,29.86,6,0,11,0.00
2013-6-7,82,66,52,53,45,41,75,47,29,29.94,29.58,14,0,21,0.01
2013-6-8,76,67,57,53,45,40,58,46,35,29.88,29.53,10,1,18,0.00
2013-6-9,88,70,49,51,44,38,79,43,21,29.92,29.65,6,0,9,0.00
2013-6-10,96,80,62,56,43,37,45,28,18,29.67,29.48,13,0,17,0.00
2013-6-11,99,81,60,49,40,30,53,26,10,29.64,29.42,18,1,18,0.00
2013-6-12,90,77,58,52,41,30,55,28,19,29.90,29.62,12,0,17,0.00
2013-6-13,81,72,58,61,54,43,82,56,30,29.88,29.65,11,0,14,0.00
2013-6-14,88,77,67,54,46,40,50,35,23,29.71,29.55,14,1,20,0.00
2013-6-15,80,70,57,55,50,45,70,50,36,29.90,29.67,8,0,14,0.00
2013-6-16,83,69,59,52,47,39,66,46,26,29.99,29.77,14,1,20,0.00
2013-6-17,79,68,54,54,46,40,69,46,27,29.98,29.79,12,0,17,0.00
2013-6-18,84,66,56,56,50,43,82,58,37,29.95,29.65,9,0,11,0.00
2013-6-19,94,76,56,53,48,34,78,43,14,29.78,29.35,14,1,14,0.00
2013-6-20,88,74,56,54,42,32,75,34,18,29.67,29.42,6,0,9,0.00
2013-6-21,94,77,60,54,44,34,59,35,13,29.70,29.46,9,0,11,0.00
2013-6-22,86,72,58,56,50,45,72,47,30,29.74,29.52,10,0,12,0.00
2013-6-23,87,68,55,56,50,40,81,57,24,29.85,29.57,11,0,12,0.11
2013-6-24,88,72,59,56,46,37,66,43,18,29.72,29.46,11,0,19,0.00
2013-6-25,89,76,60,51,42,34,46,32,19,29.74,29.51,7,0,7,0.00
2013-6-26,94,79,59,53,45,42,57,32,18,29.83,29.67,5,0,7,0.00
2013-6-27,95,81,62,55,48,43,60,33,20,29.90,29.73,8,0,10,0.00
2013-6-28,92,79,64,62,54,47,72,42,28,29.99,29.77,10,1,14,0.05
2013-6-29,81,73,61,60,55,49,81,55,36,29.98,29.84,6,0,10,0.01
2013-6-30,78,68,60,61,56,51,89,66,50,30.02,29.88,7,0,13,0.22
2013-7-1,80,67,56,61,55,49,93,68,42,30.11,29.99,6,0,8,0.13
2013-7-2,82,69,55,60,52,44,92,58,31,30.07,29.88,10,0,11,0.01
2013-7-3,87,72,55,55,49,45,80,48,26,29.91,29.65,6,0,11,0.00
2013-7-4,90,75,59,55,50,47,68,43,24,29.78,29.60,10,0,13,0.00
2013-7-5,92,74,64,58,53,49,68,48,28,29.67,29.51,7,0,14,0.00
2013-7-6,90,75,68,64,54,49,79,48,28,29.72,29.52,9,0,14,0.05
2013-7-7,82,74,64,61,55,51,73,53,38,29.81,29.66,10,0,14,0.00
2013-7-8,96,78,64,58,52,48,64,43,21,29.83,29.67,14,1,17,0.00
2013-7-9,92,79,65,57,50,45,57,38,21,29.89,29.78,13,0,18,0.00
2013-7-10,87,76,62,65,55,50,76,51,34,29.94,29.73,9,0,13,0.00
2013-7-11,99,79,63,62,56,49,83,50,20,29.83,29.53,13,0,17,0.13
2013-7-12,93,75,65,66,58,53,84,57,29,29.80,29.58,9,0,12,0.06
2013-7-13,91,71,63,66,61,55,93,73,33,30.01,29.70,14,0,18,1.60
2013-7-14,80,69,59,64,60,57,95,76,50,30.03,29.83,7,1,11,0.04
2013-7-15,76,68,64,66,60,47,93,75,52,29.98,29.86,9,0,12,0.20
2013-7-16,83,70,56,58,52,48,80,55,37,30.00,29.88,6,0,10,0.00
2013-7-17,89,74,59,60,54,50,83,53,33,30.04,29.81,6,0,10,0.00
2013-7-18,91,76,62,63,55,52,77,50,30,29.89,29.74,12,1,16,0.00
2013-7-19,82,73,66,61,57,54,70,57,42,29.93,29.80,7,0,11,0.00
2013-7-20,90,73,60,62,56,51,84,59,27,29.83,29.61,11,0,18,0.00
2013-7-21,86,74,60,64,56,49,80,54,33,29.77,29.59,8,0,11,0.00
2013-7-22,94,79,62,62,52,45,76,42,21,29.74,29.57,8,0,11,0.00
2013-7-23,88,77,61,60,51,44,62,42,28,29.83,29.61,5,0,9,0.00
2013-7-24,82,73,66,65,57,49,77,57,38,29.93,29.78,13,1,18,0.00
2013-7-25,79,66,59,62,56,52,88,71,40,30.08,29.84,11,0,18,0.08
2013-7-26,83,70,58,57,52,44,77,55,30,30.12,29.89,5,0,10,0.00
2013-7-27,78,67,55,61,55,49,90,66,46,29.96,29.82,9,0,10,0.19
2013-7-28,70,63,60,62,59,56,93,85,71,29.88,29.73,7,0,7,0.02
2013-7-29,71,62,57,60,56,53,92,79,59,30.01,29.77,9,0,10,0.02
2013-7-30,86,71,56,58,54,50,88,58,31,30.06,29.90,11,0,20,0.00
2013-7-31,89,73,60,59,53,47,76,52,26,30.13,29.85,17,0,17,0.00
2013-8-1,90,74,62,61,54,44,81,54,21,29.94,29.68,17,1,19,0.00
2013-8-2,91,75,60,58,53,48,78,49,26,29.80,29.65,7,0,10,0.00
2013-8-3,90,72,59,62,56,51,91,61,29,30.11,29.72,14,1,16,1.01
2013-8-4,86,70,57,63,56,49,89,64,31,30.01,29.82,11,0,18,0.00
2013-8-5,86,73,62,60,54,50,73,53,33,29.86,29.75,7,0,10,0.00
2013-8-6,88,73,62,59,51,45,72,49,25,29.87,29.69,15,1,17,0.00
2013-8-7,72,67,62,58,54,50,79,64,50,29.92,29.73,9,0,12,0.01
2013-8-8,77,64,58,61,56,49,90,76,53,30.07,29.84,13,1,14,0.00
2013-8-9,80,64,54,56,51,47,84,65,35,30.09,29.92,11,0,18,0.02
2013-8-10,86,67,52,58,51,46,86,60,28,30.13,29.86,13,0,20,0.08
2013-8-11,82,69,58,56,52,48,78,56,35,30.08,29.87,7,0,9,0.00
2013-8-12,82,66,55,61,54,49,89,65,43,30.10,29.88,8,0,14,0.34
2013-8-13,79,65,54,58,53,49,90,67,39,30.10,29.94,9,1,12,0.03
2013-8-14,81,67,54,56,51,44,88,60,32,30.09,29.88,10,0,11,0.00
2013-8-15,84,69,58,58,50,41,72,52,25,29.98,29.83,16,0,18,0.00
2013-8-16,89,72,56,56,48,40,73,46,20,29.99,29.83,4,0,7,0.00
2013-8-17,92,75,58,58,49,38,69,43,16,29.94,29.73,4,0,7,0.00
2013-8-18,92,76,60,58,52,44,79,45,23,29.88,29.69,13,0,15,0.00
2013-8-19,95,78,60,55,49,44,64,39,19,29.91,29.71,7,0,9,0.00
2013-8-20,96,80,66,53,48,39,54,34,15,29.78,29.60,6,0,7,0.00
2013-8-21,91,75,67,61,52,46,68,44,28,29.90,29.68,6,0,16,0.02
2013-8-22,83,70,62,66,58,54,82,67,47,30.02,29.83,13,0,13,0.02
2013-8-23,88,72,61,61,55,51,80,58,32,29.99,29.66,19,1,19,0.01
2013-8-24,86,70,58,63,55,50,78,60,33,29.87,29.74,7,0,14,0.02
2013-8-25,88,74,62,59,56,50,79,55,29,29.94,29.77,10,0,13,0.00
2013-8-26,91,76,61,61,57,53,84,56,31,29.92,29.76,7,0,13,0.01
2013-8-27,90,76,65,62,57,54,73,54,30,29.90,29.73,5,0,6,0.00
2013-8-28,92,76,63,58,55,50,75,51,25,29.88,29.73,4,0,6,0.00
2013-8-29,94,77,62,57,53,50,67,45,24,29.92,29.77,6,0,9,0.00
2013-8-30,88,73,66,62,56,53,76,56,33,29.96,29.78,10,0,14,0.07
2013-8-31,90,74,62,59,54,51,79,52,28,29.92,29.71,14,0,16,0.00
2013-9-1,79,70,64,63,56,52,74,62,51,30.01,29.82,5,0,7,0.00
2013-9-2,89,73,58,59,55,52,84,55,31,29.97,29.75,5,0,6,0.00
2013-9-3,94,78,66,59,55,51,71,47,27,29.87,29.71,14,0,14,0.00
2013-9-4,91,77,70,61,56,53,62,49,31,29.93,29.78,5,0,11,0.00
2013-9-5,94,76,64,63,55,50,76,51,26,29.99,29.77,7,0,13,0.01
2013-9-6,97,78,65,61,51,47,58,42,20,29.91,29.69,10,0,14,0.01
2013-9-7,94,75,60,60,50,43,70,45,20,29.90,29.70,5,0,6,0.00
2013-9-8,90,73,58,57,50,45,68,46,26,29.83,29.58,7,0,11,0.00
2013-9-9,84,68,60,59,55,51,82,65,38,29.88,29.59,11,1,15,0.00
2013-9-10,69,63,61,60,57,55,91,83,72,30.06,29.79,7,0,11,0.41
2013-9-11,67,59,-33,62,57,-34,94,91,81,30.64,29.99,4,0,9,0.87
2013-9-12,65,53,24,63,45,0,95,71,93,30.35,30.04,6,0,12,3.38
2013-9-13,76,62,29,64,57,26,95,86,60,30.05,29.68,5,0,7,0.38
2013-9-14,77,63,58,62,58,53,92,82,52,29.93,29.63,9,0,13,0.13
2013-9-15,60,57,55,58,55,53,94,92,90,30.18,29.83,5,0,10,0.32
2013-9-16,74,61,52,60,55,50,95,81,56,30.17,29.87,7,0,7,0.00
2013-9-17,83,68,55,54,50,42,88,57,26,29.94,29.61,6,0,9,0.00
2013-9-18,84,69,60,58,49,43,72,50,29,29.69,29.51,11,0,13,0.00
2013-9-19,66,59,50,48,44,38,77,59,45,30.13,29.63,6,0,9,0.00
2013-9-20,73,58,48,51,46,43,86,66,36,30.14,29.89,5,0,7,0.00
2013-9-21,82,65,49,53,46,41,88,55,27,29.93,29.59,5,0,9,0.00
2013-9-22,76,64,53,55,48,43,84,57,38,29.65,29.38,20,1,24,0.05
2013-9-23,67,57,50,53,43,35,93,64,34,29.99,29.35,12,1,19,0.89
2013-9-24,54,46,42,37,35,34,76,67,50,30.14,29.97,3,0,7,0.00
2013-9-25,84,70,43,48,40,35,86,38,21,29.73,29.27,17,1,19,0.00
2013-9-26,69,58,45,51,44,36,80,61,37,29.67,29.30,7,0,11,0.00
2013-9-27,52,48,41,49,44,38,92,89,80,30.06,29.60,7,0,12,0.24
2013-9-28,68,50,35,41,36,28,93,63,28,30.20,30.00,13,0,14,0.00
2013-9-29,76,62,41,47,39,33,77,46,23,30.09,29.77,4,0,6,0.00
2013-9-30,81,63,51,50,43,37,72,51,27,29.85,29.57,6,0,9,0.00
2013-10-1,77,60,46,51,43,39,77,57,30,30.00,29.70,5,0,8,0.00
2013-10-2,76,60,45,47,42,38,84,56,28,29.93,29.72,7,0,10,0.00
2013-10-3,64,52,42,48,42,37,88,70,48,29.82,29.63,9,0,11,0.03
2013-10-4,50,38,30,47,33,24,94,81,56,30.37,29.66,13,2,14,0.36
2013-10-5,60,42,28,28,25,18,92,57,21,30.38,30.17,9,0,9,0.00
2013-10-6,68,49,34,41,31,22,71,51,27,30.35,30.16,7,0,7,0.00
2013-10-7,78,56,38,40,34,27,77,49,16,30.21,29.79,7,0,7,0.00
2013-10-8,79,61,48,43,37,29,72,45,18,29.80,29.53,4,0,7,0.00
2013-10-9,64,54,45,46,40,36,76,59,44,29.91,29.66,9,0,9,0.00
2013-10-10,59,50,43,48,43,39,89,77,63,29.89,29.49,13,0,19,0.02
2013-10-11,61,51,42,41,35,29,85,57,35,30.01,29.43,10,0,15,0.01
2013-10-12,59,48,40,43,40,36,90,75,53,30.22,29.99,10,0,11,0.00
2013-10-13,62,49,36,46,40,33,88,73,52,30.20,29.83,7,0,10,0.00
2013-10-14,53,45,39,47,39,33,91,79,57,30.24,29.76,11,1,16,0.17
2013-10-15,42,38,35,33,28,25,79,66,57,30.44,30.20,5,0,7,0.00
2013-10-16,54,40,28,32,28,24,87,65,36,30.32,30.04,7,0,10,0.00
2013-10-17,50,41,34,34,30,27,78,66,50,30.24,30.06,7,0,10,0.00
2013-10-18,44,36,32,33,29,27,95,76,57,30.32,30.07,9,0,11,0.19
2013-10-19,65,47,30,30,26,22,81,49,23,30.25,29.87,7,0,12,0.00
2013-10-20,47,42,35,36,32,26,92,71,48,30.23,29.83,9,0,12,0.07
2013-10-21,58,42,29,34,30,27,91,67,34,30.35,30.13,7,0,11,0.01
2013-10-22,64,47,34,38,32,26,78,57,32,30.32,30.09,5,0,7,0.00
2013-10-23,65,49,38,39,33,28,74,56,32,30.22,30.06,5,0,7,0.00
2013-10-24,54,42,32,40,35,28,87,75,56,30.38,30.17,4,0,6,0.00
2013-10-25,69,48,33,39,34,30,92,63,28,30.31,30.03,5,0,7,0.00
2013-10-26,64,48,35,38,34,30,84,62,35,30.44,30.14,5,0,7,0.00
2013-10-27,71,50,35,34,30,27,78,51,21,30.14,29.77,6,0,10,0.00
2013-10-28,48,37,34,34,31,28,96,79,49,30.17,29.75,6,0,11,0.00
2013-10-29,41,36,33,35,32,30,96,84,73,30.15,29.92,6,0,6,0.02
2013-10-30,52,40,34,39,34,30,91,79,55,29.99,29.80,9,0,9,0.01
2013-10-31,55,42,28,30,25,22,85,55,29,29.98,29.83,14,1,15,0.00
2013-11-1,52,43,34,33,27,23,76,55,39,30.32,29.87,4,0,9,0.00
2013-11-2,64,43,27,33,26,20,81,55,27,30.35,29.75,5,0,6,0.00
2013-11-3,68,49,37,30,24,17,68,40,20,29.80,29.40,12,0,17,0.00
2013-11-4,46,37,30,30,23,15,83,58,36,30.12,29.79,10,1,13,0.00
2013-11-5,45,34,26,25,17,7,72,51,24,30.35,29.98,11,1,12,0.00
2013-11-6,53,37,22,21,16,9,59,43,26,30.45,30.27,15,1,20,0.00
2013-11-7,61,42,29,28,22,16,63,47,27,30.54,30.03,7,0,7,0.00
2013-11-8,65,47,32,28,25,20,67,44,22,30.04,29.80,6,0,9,0.00
2013-11-9,66,46,33,34,28,23,69,52,24,30.30,29.98,8,0,11,0.00
2013-11-10,68,46,30,30,26,22,81,50,20,30.36,30.09,4,0,4,0.00
2013-11-11,68,40,32,34,26,21,84,60,20,30.69,30.17,14,1,20,0.00
2013-11-12,62,43,32,34,29,24,85,60,33,30.78,30.41,7,0,10,0.00
2013-11-13,70,49,30,24,21,16,73,37,14,30.42,29.94,8,0,9,0.00
2013-11-14,59,49,39,35,31,22,64,51,35,30.13,29.76,4,0,6,0.00
2013-11-15,65,49,29,28,23,19,74,41,19,29.77,29.40,11,1,17,0.00
2013-11-16,62,44,31,31,24,18,74,49,21,29.53,29.26,8,0,17,0.00
2013-11-17,58,43,33,27,21,18,65,43,22,30.13,29.50,11,1,14,0.00
2013-11-18,66,44,26,23,19,16,70,41,15,30.30,29.99,7,0,7,0.00
2013-11-19,35,35,35,16,16,16,46,46,46,30.03,30.01,0,0,0,0.00
2013-11-21,18,16,15,10,9,8,76,74,71,30.95,30.82,4,0,6,0.00
2013-11-22,35,27,18,21,17,10,75,65,52,30.92,30.68,6,0,8,0.11
2013-11-23,36,29,25,21,17,11,76,61,48,30.84,30.49,3,0,6,0.02
2013-11-24,35,29,23,27,22,18,83,74,63,30.49,30.14,2,0,5,0.02
2013-11-25,41,36,29,29,24,18,78,63,45,30.48,30.15,9,1,11,0.00
2013-11-26,49,39,28,27,22,20,81,53,34,30.60,30.34,5,0,6,0.00
2013-11-27,64,42,26,27,21,17,71,48,20,30.37,30.02,7,0,10,0.00
2013-11-28,47,35,26,28,24,19,78,63,44,30.37,30.15,6,0,7,0.00
2013-11-29,62,42,26,25,22,20,84,51,22,30.33,30.09,6,0,7,0.00
2013-11-30,60,42,28,22,18,16,63,41,20,30.35,30.10,7,0,7,0.00
2013-12-1,58,43,27,27,21,15,61,42,26,30.27,29.80,13,0,15,0.00
2013-12-2,61,52,39,26,24,21,53,34,26,29.83,29.46,16,1,21,0.00
2013-12-3,58,36,14,29,19,8,79,53,29,29.92,29.34,14,2,17,0.00
2013-12-4,13,8,0,8,2,-6,78,76,72,30.53,29.87,8,1,11,0.00
2013-12-5,10,2,-5,1,-4,-10,79,74,65,30.63,30.48,7,0,7,0.00
2013-12-6,9,2,-2,2,-4,-8,80,74,66,30.77,30.58,5,0,6,0.00
2013-12-7,9,2,-3,2,-3,-9,80,76,71,30.73,30.24,6,0,7,0.00
2013-12-8,21,10,3,11,4,-3,81,75,62,30.42,30.15,6,0,7,0.04
2013-12-9,29,15,2,6,1,-4,78,57,29,30.56,30.30,9,1,10,0.01
2013-12-10,46,29,11,19,11,-2,65,49,29,30.45,30.07,12,1,19,0.08
2013-12-11,34,23,14,18,14,7,78,68,49,30.64,30.37,5,0,8,0.00
2013-12-12,55,31,15,27,17,9,80,59,23,30.60,30.02,5,0,6,0.01
2013-12-13,50,32,19,22,17,11,74,55,28,30.30,29.94,8,0,15,0.00
2013-12-14,46,32,23,19,17,15,74,54,31,30.51,30.23,7,0,9,0.00
2013-12-15,58,40,24,24,18,15,70,45,25,30.40,30.10,10,0,10,0.00
2013-12-16,62,46,32,23,18,14,53,35,18,30.33,30.05,11,0,14,0.00
2013-12-17,64,43,29,24,19,15,61,40,19,30.49,30.03,5,0,10,0.00
2013-12-18,66,51,40,24,19,16,44,29,18,30.03,29.65,9,0,11,0.00
2013-12-19,45,34,17,25,20,13,82,59,44,30.07,29.59,11,1,13,0.00
2013-12-20,25,21,17,20,17,13,86,83,79,30.08,29.92,3,0,5,0.00
2013-12-21,31,23,14,24,18,10,88,80,68,30.13,29.84,7,0,9,0.00
2013-12-22,41,29,17,22,16,13,87,64,33,30.42,30.09,11,1,16,0.01
2013-12-23,48,30,19,25,20,15,84,68,36,30.54,30.19,7,0,8,0.03
2013-12-24,54,39,24,30,21,14,66,49,31,30.48,29.97,20,1,22,0.00
2013-12-25,46,29,17,14,11,8,77,48,24,30.68,30.33,7,0,10,0.00
2013-12-26,54,37,24,18,14,10,56,40,22,30.49,30.30,7,0,9,0.00
2013-12-27,60,40,28,25,19,14,58,44,25,30.46,30.07,4,0,6,0.00
2013-12-28,59,37,22,26,21,16,83,55,27,30.34,29.86,16,2,17,0.00
2013-12-29,36,25,15,18,14,10,82,66,39,30.54,30.14,5,0,7,0.06
2013-12-30,48,38,25,18,17,14,67,43,27,30.37,30.07,21,1,21,0.00
2013-12-31,58,42,29,26,21,15,60,45,27,30.21,29.93,12,0,14,0.00
2014-1-1,37,32,21,30,24,17,86,75,56,30.51,29.89,14,0,19,0.04
2014-1-2,50,30,17,26,19,12,83,67,28,30.55,30.15,4,0,5,0.00